sensor_id;sensor_type;location;lat;lon;timestamp;P1;durP1;ratioP1;P2;durP2;ratioP2
38529;SDS011;24301;54.332;48.386;2023-02-28T03:53:02;9.10;;;5.07;;
38529;SDS011;24301;54.332;48.386;2023-02-28T03:55:32;7.03;;;4.67;;
38529;SDS011;24301;54.332;48.386;2023-02-28T04:01:09;9.30;;;5.53;;
38529;SDS011;24301;54.332;48.386;2023-02-28T04:03:45;9.63;;;5.73;;
38529;SDS011;24301;54.332;48.386;2023-02-28T04:06:18;6.90;;;4.30;;
38529;SDS011;24301;54.332;48.386;2023-02-28T04:08:46;8.47;;;5.50;;
38529;SDS011;24301;54.332;48.386;2023-02-28T04:11:23;6.53;;;4.43;;
38529;SDS011;24301;54.332;48.386;2023-02-28T04:13:57;7.67;;;4.53;;
38529;SDS011;24301;54.332;48.386;2023-02-28T04:16:23;6.80;;;5.13;;
38529;SDS011;24301;54.332;48.386;2023-02-28T04:18:49;9.13;;;6.47;;
38529;SDS011;24301;54.332;48.386;2023-02-28T04:21:15;7.57;;;4.23;;
38529;SDS011;24301;54.332;48.386;2023-02-28T04:23:41;7.93;;;5.17;;
38529;SDS011;24301;54.332;48.386;2023-02-28T04:26:07;10.63;;;4.80;;
38529;SDS011;24301;54.332;48.386;2023-02-28T04:28:33;8.83;;;5.13;;
38529;SDS011;24301;54.332;48.386;2023-02-28T04:31:00;6.33;;;4.33;;
38529;SDS011;24301;54.332;48.386;2023-02-28T04:33:28;8.83;;;5.63;;
38529;SDS011;24301;54.332;48.386;2023-02-28T04:36:13;6.53;;;4.67;;
38529;SDS011;24301;54.332;48.386;2023-02-28T04:38:39;6.97;;;5.00;;
38529;SDS011;24301;54.332;48.386;2023-02-28T04:41:06;6.33;;;4.03;;
38529;SDS011;24301;54.332;48.386;2023-02-28T04:43:32;6.23;;;3.70;;
38529;SDS011;24301;54.332;48.386;2023-02-28T04:46:00;7.47;;;4.63;;
38529;SDS011;24301;54.332;48.386;2023-02-28T04:48:27;5.70;;;3.57;;
38529;SDS011;24301;54.332;48.386;2023-02-28T04:50:54;8.60;;;5.00;;
38529;SDS011;24301;54.332;48.386;2023-02-28T04:53:21;5.40;;;4.33;;
38529;SDS011;24301;54.332;48.386;2023-02-28T04:55:47;7.30;;;4.33;;
38529;SDS011;24301;54.332;48.386;2023-02-28T04:58:13;7.33;;;4.90;;
38529;SDS011;24301;54.332;48.386;2023-02-28T05:00:40;6.90;;;4.50;;
38529;SDS011;24301;54.332;48.386;2023-02-28T05:03:06;7.90;;;5.23;;
38529;SDS011;24301;54.332;48.386;2023-02-28T05:05:31;8.23;;;4.63;;
38529;SDS011;24301;54.332;48.386;2023-02-28T05:07:57;7.27;;;4.27;;
38529;SDS011;24301;54.332;48.386;2023-02-28T05:10:23;6.67;;;4.60;;
38529;SDS011;24301;54.332;48.386;2023-02-28T05:12:49;7.63;;;4.13;;
38529;SDS011;24301;54.332;48.386;2023-02-28T05:15:15;7.33;;;5.20;;
38529;SDS011;24301;54.332;48.386;2023-02-28T05:17:42;5.60;;;3.80;;
38529;SDS011;24301;54.332;48.386;2023-02-28T05:20:09;7.33;;;4.87;;
38529;SDS011;24301;54.332;48.386;2023-02-28T05:22:39;6.90;;;4.97;;
38529;SDS011;24301;54.332;48.386;2023-02-28T05:25:06;7.40;;;4.07;;
38529;SDS011;24301;54.332;48.386;2023-02-28T05:27:34;6.17;;;4.63;;
38529;SDS011;24301;54.332;48.386;2023-02-28T05:30:00;6.30;;;4.70;;
38529;SDS011;24301;54.332;48.386;2023-02-28T05:32:29;5.10;;;3.60;;
38529;SDS011;24301;54.332;48.386;2023-02-28T05:34:55;7.07;;;4.53;;
38529;SDS011;24301;54.332;48.386;2023-02-28T05:37:20;7.37;;;4.80;;
38529;SDS011;24301;54.332;48.386;2023-02-28T05:39:46;7.97;;;4.80;;
38529;SDS011;24301;54.332;48.386;2023-02-28T05:42:12;5.70;;;3.60;;
38529;SDS011;24301;54.332;48.386;2023-02-28T05:44:38;6.27;;;4.63;;
38529;SDS011;24301;54.332;48.386;2023-02-28T05:47:04;7.37;;;4.60;;
38529;SDS011;24301;54.332;48.386;2023-02-28T05:49:29;5.57;;;4.13;;
38529;SDS011;24301;54.332;48.386;2023-02-28T05:51:55;6.40;;;4.10;;
38529;SDS011;24301;54.332;48.386;2023-02-28T05:54:21;6.23;;;4.47;;
38529;SDS011;24301;54.332;48.386;2023-02-28T05:56:47;6.73;;;4.20;;
38529;SDS011;24301;54.332;48.386;2023-02-28T05:59:13;4.90;;;3.07;;
38529;SDS011;24301;54.332;48.386;2023-02-28T06:01:40;6.60;;;3.87;;
38529;SDS011;24301;54.332;48.386;2023-02-28T06:04:08;4.93;;;3.40;;
38529;SDS011;24301;54.332;48.386;2023-02-28T06:06:36;5.50;;;4.17;;
38529;SDS011;24301;54.332;48.386;2023-02-28T06:09:04;7.87;;;4.30;;
38529;SDS011;24301;54.332;48.386;2023-02-28T06:11:30;9.40;;;4.57;;
38529;SDS011;24301;54.332;48.386;2023-02-28T06:13:57;9.03;;;5.00;;
38529;SDS011;24301;54.332;48.386;2023-02-28T06:16:25;11.37;;;5.60;;
38529;SDS011;24301;54.332;48.386;2023-02-28T06:18:56;9.77;;;5.43;;
38529;SDS011;24301;54.332;48.386;2023-02-28T06:21:23;7.03;;;4.10;;
38529;SDS011;24301;54.332;48.386;2023-02-28T06:23:50;6.03;;;3.80;;
38529;SDS011;24301;54.332;48.386;2023-02-28T06:26:16;5.57;;;3.57;;
38529;SDS011;24301;54.332;48.386;2023-02-28T06:28:42;7.53;;;4.33;;
38529;SDS011;24301;54.332;48.386;2023-02-28T06:31:08;6.90;;;4.53;;
38529;SDS011;24301;54.332;48.386;2023-02-28T06:33:36;8.60;;;5.33;;
38529;SDS011;24301;54.332;48.386;2023-02-28T06:36:03;7.53;;;4.77;;
38529;SDS011;24301;54.332;48.386;2023-02-28T06:38:30;10.40;;;6.63;;
38529;SDS011;24301;54.332;48.386;2023-02-28T06:40:57;7.13;;;4.80;;
38529;SDS011;24301;54.332;48.386;2023-02-28T06:43:25;6.20;;;4.30;;
38529;SDS011;24301;54.332;48.386;2023-02-28T06:45:56;8.17;;;4.83;;
38529;SDS011;24301;54.332;48.386;2023-02-28T06:48:24;6.73;;;4.80;;
38529;SDS011;24301;54.332;48.386;2023-02-28T06:50:51;6.73;;;4.00;;
38529;SDS011;24301;54.332;48.386;2023-02-28T06:53:16;6.30;;;4.10;;
38529;SDS011;24301;54.332;48.386;2023-02-28T06:55:42;4.87;;;3.70;;
38529;SDS011;24301;54.332;48.386;2023-02-28T06:58:08;5.37;;;4.20;;
38529;SDS011;24301;54.332;48.386;2023-02-28T07:00:41;5.33;;;4.00;;
38529;SDS011;24301;54.332;48.386;2023-02-28T07:03:09;6.00;;;4.00;;
38529;SDS011;24301;54.332;48.386;2023-02-28T07:05:36;6.13;;;4.27;;
38529;SDS011;24301;54.332;48.386;2023-02-28T07:08:03;4.83;;;3.77;;
38529;SDS011;24301;54.332;48.386;2023-02-28T07:10:31;5.20;;;4.07;;
38529;SDS011;24301;54.332;48.386;2023-02-28T07:12:58;5.77;;;4.13;;
38529;SDS011;24301;54.332;48.386;2023-02-28T07:15:25;5.40;;;4.30;;
38529;SDS011;24301;54.332;48.386;2023-02-28T07:17:54;6.37;;;4.00;;
38529;SDS011;24301;54.332;48.386;2023-02-28T07:20:21;5.33;;;3.73;;
38529;SDS011;24301;54.332;48.386;2023-02-28T07:22:48;5.70;;;4.03;;
38529;SDS011;24301;54.332;48.386;2023-02-28T07:25:20;6.40;;;4.17;;
38529;SDS011;24301;54.332;48.386;2023-02-28T07:27:51;7.33;;;4.50;;
38529;SDS011;24301;54.332;48.386;2023-02-28T07:30:17;5.80;;;4.20;;
38529;SDS011;24301;54.332;48.386;2023-02-28T07:32:43;6.90;;;4.40;;
38529;SDS011;24301;54.332;48.386;2023-02-28T07:35:09;4.90;;;3.87;;
38529;SDS011;24301;54.332;48.386;2023-02-28T07:37:35;6.17;;;4.83;;
38529;SDS011;24301;54.332;48.386;2023-02-28T07:40:05;5.63;;;4.27;;
38529;SDS011;24301;54.332;48.386;2023-02-28T07:42:34;5.47;;;4.03;;
38529;SDS011;24301;54.332;48.386;2023-02-28T07:45:03;5.73;;;4.13;;
38529;SDS011;24301;54.332;48.386;2023-02-28T07:47:30;5.27;;;3.67;;
38529;SDS011;24301;54.332;48.386;2023-02-28T07:49:57;5.37;;;3.37;;
38529;SDS011;24301;54.332;48.386;2023-02-28T07:52:23;6.00;;;3.97;;
38529;SDS011;24301;54.332;48.386;2023-02-28T07:54:50;5.17;;;4.07;;
38529;SDS011;24301;54.332;48.386;2023-02-28T07:57:16;5.10;;;3.63;;
38529;SDS011;24301;54.332;48.386;2023-02-28T07:59:42;4.90;;;3.67;;
38529;SDS011;24301;54.332;48.386;2023-02-28T08:02:15;4.77;;;3.63;;
38529;SDS011;24301;54.332;48.386;2023-02-28T08:04:42;4.63;;;3.58;;
38529;SDS011;24301;54.332;48.386;2023-02-28T08:07:08;4.20;;;3.20;;
38529;SDS011;24301;54.332;48.386;2023-02-28T08:09:35;4.30;;;3.37;;
38529;SDS011;24301;54.332;48.386;2023-02-28T08:12:00;5.47;;;3.47;;
38529;SDS011;24301;54.332;48.386;2023-02-28T12:14:23;10.83;;;4.20;;
38529;SDS011;24301;54.332;48.386;2023-02-28T12:27:20;7.63;;;4.67;;
38529;SDS011;24301;54.332;48.386;2023-02-28T12:29:52;8.90;;;5.60;;
38529;SDS011;24301;54.332;48.386;2023-02-28T12:34:49;7.27;;;4.63;;
38529;SDS011;24301;54.332;48.386;2023-02-28T12:37:25;10.23;;;5.00;;
38529;SDS011;24301;54.332;48.386;2023-02-28T12:40:13;8.47;;;5.43;;
38529;SDS011;24301;54.332;48.386;2023-02-28T12:42:45;11.10;;;5.33;;
38529;SDS011;24301;54.332;48.386;2023-02-28T12:46:16;7.70;;;4.07;;
38529;SDS011;24301;54.332;48.386;2023-02-28T12:48:15;6.87;;;4.10;;
38529;SDS011;24301;54.332;48.386;2023-02-28T12:50:47;8.50;;;4.07;;
38529;SDS011;24301;54.332;48.386;2023-02-28T12:54:01;9.37;;;4.87;;
38529;SDS011;24301;54.332;48.386;2023-02-28T13:04:00;8.40;;;4.83;;
38529;SDS011;24301;54.332;48.386;2023-02-28T13:09:37;12.97;;;6.27;;
38529;SDS011;24301;54.332;48.386;2023-02-28T13:12:12;8.93;;;4.07;;
38529;SDS011;24301;54.332;48.386;2023-02-28T13:14:41;6.37;;;4.00;;
38529;SDS011;24301;54.332;48.386;2023-02-28T13:19:43;5.93;;;3.73;;
38529;SDS011;24301;54.332;48.386;2023-02-28T13:24:47;5.67;;;3.43;;
38529;SDS011;24301;54.332;48.386;2023-02-28T13:27:24;6.03;;;3.57;;
38529;SDS011;24301;54.332;48.386;2023-02-28T13:30:00;6.18;;;3.65;;
38529;SDS011;24301;54.332;48.386;2023-02-28T13:32:46;5.53;;;3.30;;
38529;SDS011;24301;54.332;48.386;2023-02-28T13:35:44;6.67;;;3.67;;
38529;SDS011;24301;54.332;48.386;2023-02-28T13:38:33;4.87;;;3.73;;
38529;SDS011;24301;54.332;48.386;2023-02-28T13:51:44;7.20;;;4.00;;
38529;SDS011;24301;54.332;48.386;2023-02-28T13:59:49;6.13;;;3.47;;
38529;SDS011;24301;54.332;48.386;2023-02-28T14:02:47;8.13;;;3.53;;
38529;SDS011;24301;54.332;48.386;2023-02-28T14:05:32;5.57;;;3.97;;
38529;SDS011;24301;54.332;48.386;2023-02-28T14:08:04;6.37;;;4.20;;
38529;SDS011;24301;54.332;48.386;2023-02-28T14:10:46;4.95;;;3.03;;
38529;SDS011;24301;54.332;48.386;2023-02-28T14:13:36;5.53;;;3.67;;
38529;SDS011;24301;54.332;48.386;2023-02-28T14:16:10;6.10;;;3.47;;
38529;SDS011;24301;54.332;48.386;2023-02-28T14:18:40;6.27;;;4.00;;
38529;SDS011;24301;54.332;48.386;2023-02-28T14:21:21;5.80;;;3.57;;
38529;SDS011;24301;54.332;48.386;2023-02-28T14:32:21;5.13;;;3.00;;
38529;SDS011;24301;54.332;48.386;2023-02-28T14:34:58;6.37;;;4.20;;
38529;SDS011;24301;54.332;48.386;2023-02-28T14:37:39;5.90;;;3.50;;
38529;SDS011;24301;54.332;48.386;2023-02-28T14:40:17;5.83;;;4.03;;
38529;SDS011;24301;54.332;48.386;2023-02-28T14:42:58;6.30;;;4.57;;
38529;SDS011;24301;54.332;48.386;2023-02-28T14:45:26;6.07;;;3.40;;
38529;SDS011;24301;54.332;48.386;2023-02-28T14:47:58;6.55;;;3.80;;
38529;SDS011;24301;54.332;48.386;2023-02-28T14:50:30;7.43;;;4.37;;
38529;SDS011;24301;54.332;48.386;2023-02-28T14:53:02;6.53;;;4.20;;
38529;SDS011;24301;54.332;48.386;2023-02-28T14:55:32;8.43;;;4.33;;
38529;SDS011;24301;54.332;48.386;2023-02-28T14:58:05;6.10;;;3.90;;
38529;SDS011;24301;54.332;48.386;2023-02-28T15:00:36;11.13;;;6.00;;
38529;SDS011;24301;54.332;48.386;2023-02-28T15:03:17;7.50;;;3.83;;
38529;SDS011;24301;54.332;48.386;2023-02-28T15:05:54;12.15;;;6.03;;
38529;SDS011;24301;54.332;48.386;2023-02-28T15:08:24;12.57;;;6.20;;
38529;SDS011;24301;54.332;48.386;2023-02-28T15:11:01;9.90;;;5.43;;
38529;SDS011;24301;54.332;48.386;2023-02-28T15:18:49;6.33;;;4.30;;
38529;SDS011;24301;54.332;48.386;2023-02-28T15:21:22;7.30;;;3.90;;
38529;SDS011;24301;54.332;48.386;2023-02-28T15:23:52;5.73;;;3.80;;
38529;SDS011;24301;54.332;48.386;2023-02-28T15:26:51;7.03;;;4.30;;
38529;SDS011;24301;54.332;48.386;2023-02-28T15:29:21;6.07;;;3.63;;
38529;SDS011;24301;54.332;48.386;2023-02-28T15:31:50;6.37;;;3.67;;
38529;SDS011;24301;54.332;48.386;2023-02-28T15:34:24;6.30;;;3.67;;
38529;SDS011;24301;54.332;48.386;2023-02-28T15:39:50;7.05;;;3.70;;
38529;SDS011;24301;54.332;48.386;2023-02-28T15:42:21;5.37;;;3.77;;
38529;SDS011;24301;54.332;48.386;2023-02-28T15:44:48;6.00;;;4.00;;
38529;SDS011;24301;54.332;48.386;2023-02-28T15:47:16;5.17;;;3.93;;
38529;SDS011;24301;54.332;48.386;2023-02-28T15:49:45;6.33;;;3.40;;
38529;SDS011;24301;54.332;48.386;2023-02-28T15:52:28;5.17;;;3.47;;
38529;SDS011;24301;54.332;48.386;2023-02-28T15:54:59;5.40;;;3.93;;
38529;SDS011;24301;54.332;48.386;2023-02-28T15:57:38;6.13;;;3.60;;
38529;SDS011;24301;54.332;48.386;2023-02-28T16:00:06;5.87;;;3.73;;
38529;SDS011;24301;54.332;48.386;2023-02-28T16:02:37;5.83;;;3.50;;
38529;SDS011;24301;54.332;48.386;2023-02-28T16:07:33;6.53;;;3.83;;
38529;SDS011;24301;54.332;48.386;2023-02-28T16:10:01;6.03;;;3.40;;
38529;SDS011;24301;54.332;48.386;2023-02-28T16:12:29;5.23;;;3.87;;
38529;SDS011;24301;54.332;48.386;2023-02-28T16:14:57;4.90;;;3.37;;
38529;SDS011;24301;54.332;48.386;2023-02-28T16:17:29;5.93;;;3.77;;
38529;SDS011;24301;54.332;48.386;2023-02-28T16:19:59;5.83;;;3.73;;
38529;SDS011;24301;54.332;48.386;2023-02-28T16:22:25;5.83;;;4.00;;
38529;SDS011;24301;54.332;48.386;2023-02-28T16:24:51;5.30;;;4.23;;
38529;SDS011;24301;54.332;48.386;2023-02-28T16:27:18;5.23;;;3.30;;
38529;SDS011;24301;54.332;48.386;2023-02-28T16:29:45;6.20;;;3.50;;
38529;SDS011;24301;54.332;48.386;2023-02-28T16:32:14;5.20;;;3.53;;
38529;SDS011;24301;54.332;48.386;2023-02-28T16:34:41;9.23;;;4.23;;
38529;SDS011;24301;54.332;48.386;2023-02-28T16:37:10;10.63;;;5.17;;
38529;SDS011;24301;54.332;48.386;2023-02-28T16:39:37;9.03;;;5.80;;
38529;SDS011;24301;54.332;48.386;2023-02-28T16:42:03;5.40;;;3.67;;
38529;SDS011;24301;54.332;48.386;2023-02-28T16:44:33;9.23;;;4.20;;
38529;SDS011;24301;54.332;48.386;2023-02-28T16:47:01;6.13;;;3.77;;
38529;SDS011;24301;54.332;48.386;2023-02-28T16:49:28;6.87;;;4.00;;
38529;SDS011;24301;54.332;48.386;2023-02-28T16:51:55;7.50;;;5.03;;
38529;SDS011;24301;54.332;48.386;2023-02-28T16:54:21;7.30;;;4.77;;
38529;SDS011;24301;54.332;48.386;2023-02-28T16:56:47;6.23;;;4.07;;
38529;SDS011;24301;54.332;48.386;2023-02-28T16:59:15;6.10;;;3.93;;
38529;SDS011;24301;54.332;48.386;2023-02-28T17:01:45;7.90;;;3.70;;
38529;SDS011;24301;54.332;48.386;2023-02-28T17:04:11;6.90;;;3.80;;
38529;SDS011;24301;54.332;48.386;2023-02-28T17:06:37;5.97;;;4.10;;
38529;SDS011;24301;54.332;48.386;2023-02-28T17:09:03;5.20;;;3.10;;
38529;SDS011;24301;54.332;48.386;2023-02-28T17:11:29;6.07;;;4.20;;
38529;SDS011;24301;54.332;48.386;2023-02-28T17:13:55;6.07;;;3.43;;
38529;SDS011;24301;54.332;48.386;2023-02-28T17:16:28;5.30;;;3.80;;
38529;SDS011;24301;54.332;48.386;2023-02-28T17:19:00;6.73;;;3.63;;
38529;SDS011;24301;54.332;48.386;2023-02-28T17:21:29;6.80;;;3.03;;
38529;SDS011;24301;54.332;48.386;2023-02-28T17:23:55;6.40;;;4.30;;
38529;SDS011;24301;54.332;48.386;2023-02-28T17:26:21;5.73;;;3.10;;
38529;SDS011;24301;54.332;48.386;2023-02-28T17:28:50;7.17;;;3.73;;
38529;SDS011;24301;54.332;48.386;2023-02-28T17:31:17;5.47;;;3.30;;
38529;SDS011;24301;54.332;48.386;2023-02-28T17:33:43;5.70;;;4.30;;
38529;SDS011;24301;54.332;48.386;2023-02-28T17:36:12;5.70;;;3.50;;
38529;SDS011;24301;54.332;48.386;2023-02-28T17:38:40;5.87;;;3.43;;
38529;SDS011;24301;54.332;48.386;2023-02-28T17:41:06;7.27;;;4.13;;
38529;SDS011;24301;54.332;48.386;2023-02-28T17:43:34;7.57;;;4.37;;
38529;SDS011;24301;54.332;48.386;2023-02-28T17:46:00;7.83;;;3.60;;
38529;SDS011;24301;54.332;48.386;2023-02-28T17:48:26;8.17;;;4.20;;
38529;SDS011;24301;54.332;48.386;2023-02-28T17:50:53;5.27;;;3.43;;
38529;SDS011;24301;54.332;48.386;2023-02-28T17:53:19;7.50;;;3.83;;
38529;SDS011;24301;54.332;48.386;2023-02-28T17:55:48;7.93;;;3.70;;
38529;SDS011;24301;54.332;48.386;2023-02-28T17:58:15;6.53;;;3.83;;
38529;SDS011;24301;54.332;48.386;2023-02-28T18:00:40;5.47;;;3.50;;
38529;SDS011;24301;54.332;48.386;2023-02-28T18:03:06;8.47;;;4.37;;
38529;SDS011;24301;54.332;48.386;2023-02-28T18:05:33;8.10;;;3.97;;
38529;SDS011;24301;54.332;48.386;2023-02-28T18:07:59;7.30;;;4.13;;
38529;SDS011;24301;54.332;48.386;2023-02-28T18:10:25;7.47;;;4.23;;
38529;SDS011;24301;54.332;48.386;2023-02-28T18:12:52;7.50;;;4.27;;
38529;SDS011;24301;54.332;48.386;2023-02-28T18:15:20;7.13;;;3.80;;
38529;SDS011;24301;54.332;48.386;2023-02-28T18:17:47;7.50;;;3.93;;
38529;SDS011;24301;54.332;48.386;2023-02-28T18:20:14;10.83;;;4.50;;
38529;SDS011;24301;54.332;48.386;2023-02-28T18:22:40;8.57;;;5.70;;
38529;SDS011;24301;54.332;48.386;2023-02-28T18:25:07;7.83;;;4.33;;
38529;SDS011;24301;54.332;48.386;2023-02-28T18:27:35;9.73;;;5.03;;
38529;SDS011;24301;54.332;48.386;2023-02-28T18:30:02;6.37;;;3.80;;
38529;SDS011;24301;54.332;48.386;2023-02-28T18:32:29;7.63;;;4.57;;
38529;SDS011;24301;54.332;48.386;2023-02-28T18:34:56;6.90;;;4.50;;
38529;SDS011;24301;54.332;48.386;2023-02-28T18:37:21;7.37;;;4.57;;
38529;SDS011;24301;54.332;48.386;2023-02-28T18:39:48;10.33;;;4.80;;
38529;SDS011;24301;54.332;48.386;2023-02-28T18:42:14;7.90;;;4.40;;
38529;SDS011;24301;54.332;48.386;2023-02-28T18:44:39;7.47;;;4.47;;
38529;SDS011;24301;54.332;48.386;2023-02-28T18:47:06;8.33;;;4.80;;
38529;SDS011;24301;54.332;48.386;2023-02-28T18:49:32;7.70;;;5.03;;
38529;SDS011;24301;54.332;48.386;2023-02-28T18:52:00;9.63;;;4.67;;
38529;SDS011;24301;54.332;48.386;2023-02-28T18:54:26;8.10;;;4.17;;
38529;SDS011;24301;54.332;48.386;2023-02-28T18:56:53;9.13;;;4.47;;
38529;SDS011;24301;54.332;48.386;2023-02-28T18:59:20;8.20;;;5.13;;
38529;SDS011;24301;54.332;48.386;2023-02-28T19:01:46;11.37;;;6.10;;
38529;SDS011;24301;54.332;48.386;2023-02-28T19:04:13;9.13;;;4.80;;
38529;SDS011;24301;54.332;48.386;2023-02-28T19:06:39;9.77;;;5.20;;
38529;SDS011;24301;54.332;48.386;2023-02-28T19:09:06;7.73;;;4.80;;
38529;SDS011;24301;54.332;48.386;2023-02-28T19:11:33;8.07;;;4.80;;
38529;SDS011;24301;54.332;48.386;2023-02-28T19:13:59;7.00;;;4.50;;
38529;SDS011;24301;54.332;48.386;2023-02-28T19:16:26;8.50;;;4.83;;
38529;SDS011;24301;54.332;48.386;2023-02-28T19:18:52;9.07;;;4.93;;
38529;SDS011;24301;54.332;48.386;2023-02-28T19:21:19;10.97;;;6.20;;
38529;SDS011;24301;54.332;48.386;2023-02-28T19:23:47;9.33;;;5.93;;
38529;SDS011;24301;54.332;48.386;2023-02-28T19:26:17;8.17;;;5.20;;
38529;SDS011;24301;54.332;48.386;2023-02-28T19:28:45;6.93;;;4.20;;
38529;SDS011;24301;54.332;48.386;2023-02-28T19:31:12;9.60;;;6.00;;
38529;SDS011;24301;54.332;48.386;2023-02-28T19:33:45;7.50;;;4.40;;
38529;SDS011;24301;54.332;48.386;2023-02-28T19:36:12;10.77;;;6.40;;
38529;SDS011;24301;54.332;48.386;2023-02-28T19:38:39;10.30;;;5.87;;
38529;SDS011;24301;54.332;48.386;2023-02-28T19:41:06;8.87;;;5.17;;
38529;SDS011;24301;54.332;48.386;2023-02-28T19:43:33;12.17;;;5.97;;
38529;SDS011;24301;54.332;48.386;2023-02-28T19:45:59;8.50;;;4.73;;
38529;SDS011;24301;54.332;48.386;2023-02-28T19:48:26;9.40;;;5.23;;
38529;SDS011;24301;54.332;48.386;2023-02-28T19:50:56;7.80;;;4.73;;
38529;SDS011;24301;54.332;48.386;2023-02-28T19:53:24;8.63;;;5.23;;
38529;SDS011;24301;54.332;48.386;2023-02-28T19:55:51;9.57;;;5.73;;
38529;SDS011;24301;54.332;48.386;2023-02-28T19:58:17;10.70;;;5.93;;
38529;SDS011;24301;54.332;48.386;2023-02-28T20:00:44;11.27;;;6.67;;
38529;SDS011;24301;54.332;48.386;2023-02-28T20:03:10;8.77;;;5.07;;
38529;SDS011;24301;54.332;48.386;2023-02-28T20:05:35;9.57;;;5.83;;
38529;SDS011;24301;54.332;48.386;2023-02-28T20:08:02;10.93;;;5.30;;
38529;SDS011;24301;54.332;48.386;2023-02-28T20:10:28;10.07;;;5.70;;
38529;SDS011;24301;54.332;48.386;2023-02-28T20:12:55;9.33;;;5.40;;
38529;SDS011;24301;54.332;48.386;2023-02-28T20:15:21;9.97;;;5.43;;
38529;SDS011;24301;54.332;48.386;2023-02-28T20:17:47;9.07;;;5.57;;
38529;SDS011;24301;54.332;48.386;2023-02-28T20:20:13;9.07;;;5.80;;
38529;SDS011;24301;54.332;48.386;2023-02-28T20:22:39;11.50;;;6.63;;
38529;SDS011;24301;54.332;48.386;2023-02-28T20:25:05;10.70;;;5.80;;
38529;SDS011;24301;54.332;48.386;2023-02-28T20:27:32;12.50;;;6.30;;
38529;SDS011;24301;54.332;48.386;2023-02-28T20:30:00;8.27;;;5.40;;
38529;SDS011;24301;54.332;48.386;2023-02-28T20:32:26;10.53;;;5.83;;
38529;SDS011;24301;54.332;48.386;2023-02-28T20:34:52;10.43;;;5.73;;
38529;SDS011;24301;54.332;48.386;2023-02-28T20:37:18;8.10;;;4.87;;
38529;SDS011;24301;54.332;48.386;2023-02-28T20:39:43;11.10;;;6.00;;
38529;SDS011;24301;54.332;48.386;2023-02-28T20:42:09;9.20;;;4.87;;
38529;SDS011;24301;54.332;48.386;2023-02-28T20:44:35;8.13;;;4.80;;
38529;SDS011;24301;54.332;48.386;2023-02-28T20:47:01;9.07;;;5.60;;
38529;SDS011;24301;54.332;48.386;2023-02-28T20:49:28;9.93;;;5.10;;
38529;SDS011;24301;54.332;48.386;2023-02-28T20:51:54;9.93;;;5.30;;
38529;SDS011;24301;54.332;48.386;2023-02-28T20:54:20;8.73;;;5.53;;
38529;SDS011;24301;54.332;48.386;2023-02-28T20:56:46;8.40;;;4.87;;
38529;SDS011;24301;54.332;48.386;2023-02-28T20:59:12;12.50;;;6.30;;
38529;SDS011;24301;54.332;48.386;2023-02-28T21:01:38;10.80;;;5.73;;
38529;SDS011;24301;54.332;48.386;2023-02-28T21:04:06;9.67;;;5.43;;
38529;SDS011;24301;54.332;48.386;2023-02-28T21:06:39;8.73;;;5.90;;
38529;SDS011;24301;54.332;48.386;2023-02-28T21:09:08;9.27;;;5.00;;
38529;SDS011;24301;54.332;48.386;2023-02-28T21:11:35;8.87;;;5.70;;
38529;SDS011;24301;54.332;48.386;2023-02-28T21:14:03;11.23;;;5.63;;
38529;SDS011;24301;54.332;48.386;2023-02-28T21:16:32;10.83;;;6.80;;
38529;SDS011;24301;54.332;48.386;2023-02-28T21:18:58;11.17;;;6.03;;
38529;SDS011;24301;54.332;48.386;2023-02-28T21:21:28;9.97;;;4.93;;
38529;SDS011;24301;54.332;48.386;2023-02-28T21:23:56;11.93;;;6.37;;
38529;SDS011;24301;54.332;48.386;2023-02-28T21:26:23;9.80;;;5.30;;
38529;SDS011;24301;54.332;48.386;2023-02-28T21:28:50;8.70;;;5.40;;
38529;SDS011;24301;54.332;48.386;2023-02-28T21:31:17;10.00;;;5.63;;
38529;SDS011;24301;54.332;48.386;2023-02-28T21:33:45;8.60;;;5.07;;
38529;SDS011;24301;54.332;48.386;2023-02-28T21:36:16;14.07;;;6.10;;
38529;SDS011;24301;54.332;48.386;2023-02-28T21:38:44;11.30;;;6.63;;
38529;SDS011;24301;54.332;48.386;2023-02-28T21:43:38;12.60;;;6.90;;
38529;SDS011;24301;54.332;48.386;2023-02-28T21:46:08;13.67;;;6.77;;
38529;SDS011;24301;54.332;48.386;2023-02-28T21:48:36;13.93;;;7.70;;
38529;SDS011;24301;54.332;48.386;2023-02-28T21:51:04;13.63;;;6.77;;
38529;SDS011;24301;54.332;48.386;2023-02-28T21:53:32;12.73;;;7.07;;
38529;SDS011;24301;54.332;48.386;2023-02-28T21:56:03;13.63;;;7.77;;
38529;SDS011;24301;54.332;48.386;2023-02-28T21:58:40;10.77;;;6.33;;
38529;SDS011;24301;54.332;48.386;2023-02-28T22:01:08;12.57;;;6.40;;
38529;SDS011;24301;54.332;48.386;2023-02-28T22:03:36;13.00;;;7.43;;
38529;SDS011;24301;54.332;48.386;2023-02-28T22:06:12;13.83;;;7.73;;
38529;SDS011;24301;54.332;48.386;2023-02-28T22:08:40;12.53;;;7.63;;
38529;SDS011;24301;54.332;48.386;2023-02-28T22:11:08;13.80;;;6.83;;
38529;SDS011;24301;54.332;48.386;2023-02-28T22:13:35;12.80;;;6.97;;
38529;SDS011;24301;54.332;48.386;2023-02-28T22:16:06;14.13;;;7.93;;
38529;SDS011;24301;54.332;48.386;2023-02-28T22:18:33;14.07;;;7.13;;
38529;SDS011;24301;54.332;48.386;2023-02-28T22:21:00;11.00;;;6.37;;
38529;SDS011;24301;54.332;48.386;2023-02-28T22:23:26;9.53;;;5.80;;
38529;SDS011;24301;54.332;48.386;2023-02-28T22:25:52;10.03;;;6.00;;
38529;SDS011;24301;54.332;48.386;2023-02-28T22:28:21;9.77;;;5.27;;
38529;SDS011;24301;54.332;48.386;2023-02-28T22:30:48;14.40;;;7.50;;
38529;SDS011;24301;54.332;48.386;2023-02-28T22:33:18;10.13;;;5.40;;
38529;SDS011;24301;54.332;48.386;2023-02-28T22:35:44;11.20;;;5.77;;
38529;SDS011;24301;54.332;48.386;2023-02-28T22:38:11;8.17;;;5.10;;
38529;SDS011;24301;54.332;48.386;2023-02-28T22:40:37;12.20;;;6.73;;
38529;SDS011;24301;54.332;48.386;2023-02-28T22:43:04;9.83;;;6.33;;
38529;SDS011;24301;54.332;48.386;2023-02-28T22:45:30;9.10;;;5.13;;
38529;SDS011;24301;54.332;48.386;2023-02-28T22:48:00;9.23;;;5.50;;
38529;SDS011;24301;54.332;48.386;2023-02-28T22:50:26;10.77;;;5.70;;
38529;SDS011;24301;54.332;48.386;2023-02-28T22:52:52;10.67;;;5.90;;
38529;SDS011;24301;54.332;48.386;2023-02-28T22:55:17;8.60;;;5.40;;
38529;SDS011;24301;54.332;48.386;2023-02-28T22:57:43;11.27;;;6.30;;
38529;SDS011;24301;54.332;48.386;2023-02-28T23:00:09;10.60;;;5.93;;
38529;SDS011;24301;54.332;48.386;2023-02-28T23:02:40;8.93;;;5.40;;
38529;SDS011;24301;54.332;48.386;2023-02-28T23:05:10;10.53;;;5.30;;
38529;SDS011;24301;54.332;48.386;2023-02-28T23:07:37;10.20;;;5.67;;
38529;SDS011;24301;54.332;48.386;2023-02-28T23:10:05;8.90;;;5.20;;
38529;SDS011;24301;54.332;48.386;2023-02-28T23:12:33;10.27;;;5.90;;
38529;SDS011;24301;54.332;48.386;2023-02-28T23:14:59;9.73;;;5.70;;
38529;SDS011;24301;54.332;48.386;2023-02-28T23:17:25;9.60;;;5.80;;
38529;SDS011;24301;54.332;48.386;2023-02-28T23:19:51;7.37;;;5.03;;
38529;SDS011;24301;54.332;48.386;2023-02-28T23:22:17;8.43;;;5.10;;
38529;SDS011;24301;54.332;48.386;2023-02-28T23:24:43;7.83;;;5.07;;
38529;SDS011;24301;54.332;48.386;2023-02-28T23:27:09;8.73;;;4.93;;
38529;SDS011;24301;54.332;48.386;2023-02-28T23:29:35;9.33;;;6.03;;
38529;SDS011;24301;54.332;48.386;2023-02-28T23:32:01;9.03;;;5.03;;
38529;SDS011;24301;54.332;48.386;2023-02-28T23:34:27;8.33;;;5.30;;
38529;SDS011;24301;54.332;48.386;2023-02-28T23:36:58;9.57;;;5.70;;
38529;SDS011;24301;54.332;48.386;2023-02-28T23:39:25;8.23;;;4.90;;
38529;SDS011;24301;54.332;48.386;2023-02-28T23:41:52;9.13;;;5.10;;
38529;SDS011;24301;54.332;48.386;2023-02-28T23:44:18;8.23;;;5.00;;